Time;durP1;ratioP1;P1;durP2;ratioP2;P2;SDS_P1;SDS_P2;PMS_P1;PMS_P2;Temp;Humidity;BMP_temperature;BMP_pressure;BME280_temperature;BME280_humidity;BME280_pressure;Samples;Min_cycle;Max_cycle;Signal;HPM_P1;HPM_P2
2024/02/03 00:02:18;;;;;;;31.20;7.13;;;9.20;99.90;;;;;;5067305;28;37545;-87
2024/02/03 00:04:44;;;;;;;33.83;6.60;;;9.20;99.90;;;;;;5069483;28;37346;-85
2024/02/03 00:07:11;;;;;;;25.97;6.13;;;9.20;99.90;;;;;;5066078;28;36060;-86
2024/02/03 00:09:37;;;;;;;29.27;5.93;;;9.20;99.90;;;;;;5070391;28;37824;-83
2024/02/03 00:12:04;;;;;;;20.97;5.93;;;9.10;99.90;;;;;;5071074;28;38459;-85
2024/02/03 00:14:30;;;;;;;27.17;6.57;;;9.10;99.90;;;;;;5063109;28;37328;-85
2024/02/03 00:16:56;;;;;;;37.23;6.20;;;9.10;99.90;;;;;;5068124;28;36380;-85
2024/02/03 00:19:23;;;;;;;30.43;6.70;;;9.20;99.90;;;;;;5068547;28;37638;-87
2024/02/03 00:21:49;;;;;;;26.70;5.70;;;9.20;99.90;;;;;;5070316;28;38806;-85
2024/02/03 00:24:15;;;;;;;25.57;6.30;;;9.20;99.90;;;;;;5065064;28;38527;-85
2024/02/03 00:26:42;;;;;;;24.17;5.37;;;9.20;99.90;;;;;;5075060;28;36147;-85
2024/02/03 00:29:08;;;;;;;29.90;6.47;;;9.30;99.90;;;;;;5068186;28;38972;-86
2024/02/03 00:31:34;;;;;;;31.43;5.60;;;9.40;99.90;;;;;;5064854;28;39050;-85
2024/02/03 00:34:00;;;;;;;27.83;4.93;;;9.40;99.90;;;;;;5066576;28;36831;-85
2024/02/03 00:36:26;;;;;;;20.37;6.03;;;9.40;99.90;;;;;;5063943;28;48408;-85
2024/02/03 00:38:53;;;;;;;26.77;5.13;;;9.50;99.90;;;;;;5065013;28;37637;-85
2024/02/03 00:41:19;;;;;;;22.73;4.97;;;9.50;99.90;;;;;;5065357;28;37214;-84
2024/02/03 00:43:45;;;;;;;24.57;4.53;;;9.50;99.90;;;;;;5061993;28;38577;-85
2024/02/03 00:46:11;;;;;;;23.07;4.80;;;9.60;99.90;;;;;;5092599;28;36351;-81
2024/02/03 00:48:38;;;;;;;28.23;5.40;;;9.60;99.90;;;;;;5069447;28;37495;-85
2024/02/03 00:51:11;;;;;;;19.10;5.10;;;9.70;99.90;;;;;;5067171;28;38152;-84
2024/02/03 00:53:44;;;;;;;22.33;5.80;;;9.70;99.90;;;;;;5068731;28;38919;-81
2024/02/03 00:56:10;;;;;;;;;;;9.70;99.90;;;;;;5067415;28;38120;-86
2024/02/03 00:58:36;;;;;;;21.77;4.50;;;9.70;99.90;;;;;;5069498;28;39081;-85
2024/02/03 01:01:04;;;;;;;26.00;5.10;;;9.70;99.90;;;;;;5066637;28;38968;-82
2024/02/03 01:03:30;;;;;;;20.33;4.57;;;9.80;99.90;;;;;;5067529;28;39779;-84
2024/02/03 01:05:56;;;;;;;24.13;5.27;;;9.80;99.90;;;;;;5065777;28;38251;-84
2024/02/03 01:08:23;;;;;;;25.27;5.27;;;9.80;99.90;;;;;;5076790;28;40605;-85
2024/02/03 01:10:49;;;;;;;28.23;5.53;;;9.80;99.90;;;;;;5070934;28;38390;-85
2024/02/03 01:13:15;;;;;;;25.23;4.97;;;9.90;99.90;;;;;;5067848;28;38073;-84
2024/02/03 01:15:42;;;;;;;23.37;4.93;;;9.90;99.90;;;;;;5068748;28;38104;-85
2024/02/03 01:18:08;;;;;;;23.33;4.80;;;9.90;99.90;;;;;;5066499;28;39356;-80
2024/02/03 01:20:34;;;;;;;16.00;4.13;;;9.90;99.90;;;;;;5067438;28;38998;-84
2024/02/03 01:23:00;;;;;;;24.77;4.30;;;9.90;99.90;;;;;;5068022;28;38218;-84
2024/02/03 01:25:26;;;;;;;20.83;3.60;;;10.00;99.90;;;;;;5065835;28;36983;-84
2024/02/03 01:27:53;;;;;;;22.43;4.03;;;10.00;99.90;;;;;;5066735;28;40860;-82
2024/02/03 01:30:19;;;;;;;21.13;3.47;;;10.10;99.90;;;;;;5064935;28;37598;-81
2024/02/03 01:32:45;;;;;;;18.97;4.23;;;10.10;99.90;;;;;;5064023;28;39797;-84
2024/02/03 01:35:11;;;;;;;11.60;2.87;;;10.20;99.90;;;;;;5065812;28;39149;-82
2024/02/03 01:37:38;;;;;;;16.07;3.23;;;10.20;99.90;;;;;;5062805;28;39569;-84
2024/02/03 01:40:05;;;;;;;16.10;3.03;;;10.20;99.90;;;;;;5065076;28;38676;-85
2024/02/03 01:42:31;;;;;;;21.33;3.07;;;10.20;99.90;;;;;;5064970;28;47241;-85
2024/02/03 01:44:57;;;;;;;21.83;3.93;;;10.20;99.90;;;;;;5068491;28;37875;-84
2024/02/03 01:47:23;;;;;;;12.03;3.07;;;10.20;99.90;;;;;;5068432;28;38934;-84
2024/02/03 01:49:52;;;;;;;13.23;3.33;;;10.20;99.90;;;;;;5065572;28;37717;-84
2024/02/03 01:52:18;;;;;;;16.43;3.37;;;10.20;99.90;;;;;;5065564;28;39183;-84
2024/02/03 01:54:45;;;;;;;18.87;2.93;;;10.20;99.90;;;;;;5067596;28;37465;-85
2024/02/03 01:57:12;;;;;;;17.03;2.80;;;10.20;99.90;;;;;;5067865;28;38628;-84
2024/02/03 01:59:39;;;;;;;16.73;3.50;;;10.20;99.90;;;;;;5066828;28;38755;-84
2024/02/03 06:44:04;;;;;;;33.10;5.07;;;9.70;99.90;;;;;;5752488;23;20053;-81
2024/02/03 09:36:21;;;;;;;19.45;2.92;;;10.20;99.90;;;;;;5509896;23;20070;-82
2024/02/03 10:08:10;;;;;;;16.43;3.20;;;10.60;99.90;;;;;;5341239;23;20063;-80
2024/02/03 10:13:45;;;;;;;18.03;2.17;;;10.80;99.90;;;;;;5411694;23;20040;-81
2024/02/03 10:16:27;;;;;;;14.98;3.35;;;10.80;99.90;;;;;;4890767;28;39352;-81
2024/02/03 10:19:27;;;;;;;16.15;3.15;;;10.80;99.90;;;;;;4924765;28;48284;-81
2024/02/03 10:22:58;;;;;;;15.93;2.60;;;10.80;99.90;;;;;;4904486;28;49378;-79
2024/02/03 10:26:24;;;;;;;14.27;2.47;;;10.90;99.90;;;;;;4916685;28;50145;-82
2024/02/03 10:29:25;;;;;;;7.25;2.20;;;10.90;99.90;;;;;;4899404;29;38775;-82
2024/02/03 10:32:30;;;;;;;10.98;2.22;;;11.00;99.90;;;;;;4890659;29;38519;-81
2024/02/03 10:35:46;;;;;;;12.07;2.53;;;11.10;99.90;;;;;;4880877;29;41164;-81
2024/02/03 10:38:34;;;;;;;10.02;2.47;;;11.20;99.90;;;;;;4886368;29;48620;-81
2024/02/03 10:41:43;;;;;;;16.20;2.50;;;11.30;99.90;;;;;;4889842;29;39480;-80
2024/02/03 10:48:19;;;;;;;9.02;2.15;;;11.50;99.90;;;;;;4877432;29;49082;-80
2024/02/03 10:51:34;;;;;;;10.68;1.98;;;11.50;99.90;;;;;;4923921;29;38147;-81
2024/02/03 10:54:52;;;;;;;16.13;2.30;;;11.50;99.90;;;;;;4888081;29;39707;-81
2024/02/03 10:57:59;;;;;;;11.88;2.30;;;11.40;99.90;;;;;;4880141;29;49440;-81
2024/02/03 11:00:38;;;;;;;13.32;2.35;;;11.40;99.90;;;;;;4886592;29;39319;-82
2024/02/03 11:09:24;;;;;;;21.27;3.17;;;11.40;99.90;;;;;;5207490;23;20047;-81
2024/02/03 11:12:17;;;;;;;11.95;2.40;;;11.40;99.90;;;;;;4914079;28;49341;-81
2024/02/03 11:14:52;;;;;;;13.15;2.80;;;11.40;99.90;;;;;;4893360;29;48796;-81
2024/02/03 11:17:22;;;;;;;11.20;2.70;;;11.50;99.90;;;;;;4933112;28;38318;-80
2024/02/03 11:19:56;;;;;;;9.52;2.95;;;11.70;99.90;;;;;;4928770;28;39144;-80
2024/02/03 11:22:33;;;;;;;13.23;3.22;;;11.70;99.90;;;;;;4909798;29;37854;-80
2024/02/03 11:25:01;;;;;;;18.90;3.38;;;11.70;99.90;;;;;;4898682;29;38584;-81
2024/02/03 11:27:42;;;;;;;8.98;2.17;;;11.60;99.90;;;;;;4870527;29;48346;-80
2024/02/03 11:30:12;;;;;;;9.68;2.55;;;11.50;99.90;;;;;;4897873;29;37027;-81
2024/02/03 11:32:41;;;;;;;12.68;2.30;;;11.50;99.90;;;;;;4886312;29;39408;-80
2024/02/03 11:35:21;;;;;;;14.98;2.97;;;11.40;99.90;;;;;;4887915;29;38928;-80
2024/02/03 11:38:09;;;;;;;17.30;4.10;;;11.30;99.90;;;;;;4915094;28;39124;-79
2024/02/03 11:40:48;;;;;;;12.00;2.85;;;11.20;99.90;;;;;;4892927;29;46180;-81
2024/02/03 11:43:27;;;;;;;16.97;3.10;;;11.20;99.90;;;;;;4903350;29;39179;-80
2024/02/03 11:45:58;;;;;;;14.80;2.80;;;11.10;99.90;;;;;;4899245;29;38116;-81
2024/02/03 11:48:32;;;;;;;15.50;2.77;;;11.00;99.90;;;;;;4883544;29;50051;-80
2024/02/03 11:51:10;;;;;;;16.00;3.08;;;11.00;99.90;;;;;;4897214;29;38454;-80
2024/02/03 11:53:36;;;;;;;13.70;2.83;;;11.00;99.90;;;;;;4908047;29;38055;-80
2024/02/03 11:56:03;;;;;;;16.33;2.90;;;11.00;99.90;;;;;;4908582;29;38881;-79
2024/02/03 11:58:29;;;;;;;12.93;2.33;;;11.00;99.90;;;;;;4903746;29;36793;-80
2024/02/03 12:01:08;;;;;;;16.08;2.53;;;11.10;99.90;;;;;;4889542;29;36197;-79
2024/02/03 12:03:36;;;;;;;11.13;2.28;;;11.10;99.90;;;;;;4905979;29;48440;-80
2024/02/03 12:06:07;;;;;;;14.75;3.15;;;11.10;99.90;;;;;;4934162;29;38328;-80
2024/02/03 12:08:34;;;;;;;12.10;2.65;;;11.20;99.90;;;;;;4917733;29;37487;-80
2024/02/03 12:11:00;;;;;;;11.25;2.42;;;11.20;99.90;;;;;;4924949;29;37495;-80
2024/02/03 12:13:37;;;;;;;7.32;2.50;;;11.20;99.90;;;;;;4923232;29;39119;-80
2024/02/03 12:16:04;;;;;;;10.93;2.42;;;11.20;99.90;;;;;;4936923;28;38782;-80
2024/02/03 12:18:39;;;;;;;11.80;2.33;;;11.20;99.90;;;;;;4918740;29;37502;-80
2024/02/03 12:21:09;;;;;;;14.23;2.60;;;11.20;99.90;;;;;;4912185;29;36611;-80
2024/02/03 12:23:35;;;;;;;12.65;2.65;;;11.20;99.90;;;;;;4930811;29;39404;-79
2024/02/03 12:26:01;;;;;;;8.75;2.67;;;11.20;99.90;;;;;;4932966;29;38467;-80
2024/02/03 12:28:28;;;;;;;19.00;2.95;;;11.10;99.90;;;;;;4946894;28;39575;-80
2024/02/03 12:30:56;;;;;;;15.40;3.10;;;11.10;99.90;;;;;;4926978;29;38592;-80
2024/02/03 12:33:24;;;;;;;10.90;2.28;;;11.20;99.90;;;;;;4915990;29;37826;-80
2024/02/03 12:35:50;;;;;;;15.32;3.00;;;11.20;99.90;;;;;;4934386;28;38973;-80
2024/02/03 12:38:17;;;;;;;9.65;2.58;;;11.20;99.90;;;;;;4913489;29;38234;-79
2024/02/03 12:40:44;;;;;;;15.45;3.05;;;11.20;99.90;;;;;;4934237;29;35954;-80
2024/02/03 12:43:10;;;;;;;13.27;3.72;;;11.20;99.90;;;;;;4940319;29;39986;-81
2024/02/03 12:45:46;;;;;;;13.10;4.18;;;11.10;99.90;;;;;;4935125;28;39573;-81
2024/02/03 12:48:13;;;;;;;21.58;6.70;;;11.20;99.90;;;;;;4953325;28;37271;-81
2024/02/03 12:50:43;;;;;;;20.85;7.20;;;11.20;99.90;;;;;;4937969;29;35767;-81
2024/02/03 12:53:11;;;;;;;13.50;3.28;;;11.20;99.90;;;;;;4951205;29;38590;-81
2024/02/03 12:55:48;;;;;;;14.07;3.50;;;11.30;99.90;;;;;;4935307;29;39118;-81
2024/02/03 12:58:16;;;;;;;14.60;3.60;;;11.30;99.90;;;;;;4955274;28;38273;-81
2024/02/03 13:00:48;;;;;;;13.73;2.95;;;11.40;99.90;;;;;;4939964;29;37965;-80
2024/02/03 13:03:29;;;;;;;17.73;3.60;;;11.40;99.90;;;;;;4941120;28;39247;-80
2024/02/03 13:06:00;;;;;;;18.38;3.42;;;11.40;99.90;;;;;;4951484;28;38597;-81
2024/02/03 13:08:26;;;;;;;26.45;3.95;;;11.40;99.90;;;;;;4932132;29;37801;-81
2024/02/03 13:10:52;;;;;;;21.70;3.20;;;11.30;99.90;;;;;;4932853;29;37006;-81
2024/02/03 13:13:20;;;;;;;12.15;3.53;;;11.30;99.90;;;;;;4937728;29;37820;-81
2024/02/03 13:15:47;;;;;;;23.55;4.00;;;11.30;99.90;;;;;;4955329;28;38679;-81
2024/02/03 13:18:32;;;;;;;19.52;3.80;;;11.30;99.90;;;;;;4940208;29;38716;-81
2024/02/03 13:20:58;;;;;;;13.48;3.38;;;11.30;99.90;;;;;;4941113;29;37309;-82
2024/02/03 13:23:24;;;;;;;15.95;3.25;;;11.40;99.90;;;;;;4948849;28;39249;-81
2024/02/03 13:25:51;;;;;;;21.85;4.60;;;11.50;99.90;;;;;;4950173;28;38819;-82
2024/02/03 13:30:53;;;;;;;21.73;3.95;;;11.70;99.90;;;;;;5778528;23;20048;-81
2024/02/03 13:33:40;;;;;;;19.35;4.07;;;11.60;99.90;;;;;;4936396;28;40613;-81
2024/02/03 13:36:06;;;;;;;15.23;3.75;;;11.50;99.90;;;;;;4936372;29;38877;-80
2024/02/03 13:38:37;;;;;;;19.17;4.20;;;11.50;99.90;;;;;;4935286;29;38583;-81
2024/02/03 13:41:07;;;;;;;23.38;4.20;;;11.50;99.90;;;;;;4938320;29;37698;-80
2024/02/03 13:43:47;;;;;;;22.10;3.75;;;11.50;99.90;;;;;;4936220;29;38360;-79
2024/02/03 13:46:30;;;;;;;23.88;4.20;;;11.50;99.90;;;;;;4939751;29;38598;-80
2024/02/03 13:48:57;;;;;;;18.77;3.67;;;11.50;99.90;;;;;;4935864;29;38574;-80
2024/02/03 13:51:24;;;;;;;19.45;3.83;;;11.50;99.90;;;;;;4936559;29;36051;-81
2024/02/03 13:54:13;;;;;;;21.20;3.30;;;11.50;99.90;;;;;;4939674;28;39009;-81
2024/02/03 13:56:41;;;;;;;17.27;4.00;;;11.60;99.90;;;;;;4930987;29;48531;-81
2024/02/03 13:59:08;;;;;;;16.05;3.45;;;11.70;99.90;;;;;;4933717;28;20044;-81
2024/02/03 14:01:35;;;;;;;18.80;3.85;;;11.70;99.90;;;;;;4931055;29;36453;-81
2024/02/03 14:04:01;;;;;;;14.52;3.00;;;11.70;99.90;;;;;;4933303;29;39340;-81
2024/02/03 14:06:28;;;;;;;20.60;4.22;;;11.70;99.90;;;;;;4937159;29;46909;-81
2024/02/03 14:08:54;;;;;;;19.58;4.10;;;11.60;99.90;;;;;;4933231;29;37540;-81
2024/02/03 14:11:27;;;;;;;17.45;3.20;;;11.50;99.90;;;;;;4922630;29;36498;-79
2024/02/03 14:13:53;;;;;;;14.30;3.30;;;11.50;99.90;;;;;;4928758;29;39001;-80
2024/02/03 14:16:42;;;;;;;17.02;2.97;;;11.60;99.90;;;;;;4935048;29;38523;-80
2024/02/03 14:19:28;;;;;;;20.00;3.35;;;11.70;99.90;;;;;;4941658;28;38164;-81
2024/02/03 14:21:55;;;;;;;16.27;2.92;;;11.70;99.90;;;;;;4936721;29;37333;-80
2024/02/03 14:24:24;;;;;;;20.15;3.55;;;11.60;99.90;;;;;;4923052;29;39088;-80
2024/02/03 14:26:51;;;;;;;17.80;3.50;;;11.50;99.90;;;;;;4919872;29;38664;-80
2024/02/03 14:29:21;;;;;;;12.25;2.30;;;11.50;99.90;;;;;;4933937;29;38194;-81
2024/02/03 14:31:49;;;;;;;16.05;3.25;;;11.50;99.90;;;;;;4931918;29;37185;-80
2024/02/03 14:34:16;;;;;;;15.85;3.10;;;11.50;99.90;;;;;;4931291;29;39392;-81
2024/02/03 14:36:53;;;;;;;11.07;2.60;;;11.50;99.90;;;;;;4935592;29;39379;-80
2024/02/03 14:39:19;;;;;;;14.77;3.47;;;11.60;99.90;;;;;;4941136;28;38341;-81
2024/02/03 14:41:47;;;;;;;17.15;3.17;;;11.60;99.90;;;;;;4943872;29;36388;-81
2024/02/03 14:44:14;;;;;;;14.00;3.15;;;11.70;99.90;;;;;;4942980;29;38970;-81
2024/02/03 14:46:46;;;;;;;14.32;3.47;;;11.70;99.90;;;;;;4939579;29;39753;-82
2024/02/03 14:49:16;;;;;;;12.93;2.95;;;11.70;99.90;;;;;;4939673;29;38000;-80
2024/02/03 14:51:51;;;;;;;13.38;2.50;;;11.80;99.90;;;;;;5077229;23;37281;-80
2024/02/03 14:54:18;;;;;;;17.67;3.38;;;11.80;99.90;;;;;;4941644;28;38720;-81
2024/02/03 14:56:57;;;;;;;17.17;2.80;;;11.80;99.90;;;;;;4942309;28;38978;-82
2024/02/03 15:02:54;;;;;;;23.50;3.78;;;11.70;99.90;;;;;;5313175;23;20052;-81
2024/02/03 15:08:26;;;;;;;14.85;2.60;;;11.70;99.90;;;;;;5328616;23;20050;-81
2024/02/03 15:13:35;;;;;;;16.33;3.45;;;11.70;99.90;;;;;;4936354;28;20033;-81
2024/02/03 15:16:02;;;;;;;11.57;2.85;;;11.60;99.90;;;;;;4939626;29;38992;-81
2024/02/03 15:18:32;;;;;;;17.90;4.18;;;11.60;99.90;;;;;;4941896;29;48445;-81
2024/02/03 15:21:02;;;;;;;16.38;4.55;;;11.60;99.90;;;;;;4942190;28;37626;-80
2024/02/03 15:23:28;;;;;;;23.90;7.05;;;11.60;99.90;;;;;;4931446;28;48651;-81
2024/02/03 15:25:58;;;;;;;27.55;6.20;;;11.60;99.90;;;;;;4941658;28;40963;-81
2024/02/03 15:28:25;;;;;;;20.75;4.10;;;11.60;99.90;;;;;;4934262;28;38672;-81
2024/02/03 15:30:54;;;;;;;18.00;3.50;;;11.50;99.90;;;;;;4940905;28;38091;-81
2024/02/03 15:33:21;;;;;;;26.52;5.00;;;11.40;99.90;;;;;;4933218;28;37195;-81
2024/02/03 15:35:47;;;;;;;22.67;4.53;;;11.40;99.90;;;;;;4945439;28;41175;-81
2024/02/03 15:38:19;;;;;;;23.38;4.15;;;11.30;99.90;;;;;;4927385;28;38341;-81
2024/02/03 15:40:46;;;;;;;24.40;4.83;;;11.30;99.90;;;;;;4941678;28;37429;-81
2024/02/03 15:43:12;;;;;;;29.25;5.15;;;11.20;99.90;;;;;;4932736;28;36258;-80
2024/02/03 15:46:03;;;;;;;26.75;4.82;;;11.10;99.90;;;;;;4933447;28;38379;-81
2024/02/03 15:48:29;;;;;;;29.63;6.27;;;11.00;99.90;;;;;;4964470;23;50373;-81
2024/02/03 15:51:02;;;;;;;32.30;6.10;;;10.90;99.90;;;;;;4940918;28;38324;-81
2024/02/03 15:53:30;;;;;;;27.42;4.93;;;10.90;99.90;;;;;;4939815;28;48224;-81
2024/02/03 15:55:56;;;;;;;36.83;6.97;;;10.80;99.90;;;;;;4955551;28;39209;-81
2024/02/03 15:58:29;;;;;;;35.63;5.40;;;10.70;99.90;;;;;;4927088;28;38405;-82
2024/02/03 16:00:55;;;;;;;28.05;5.13;;;10.70;99.90;;;;;;4943987;28;38548;-81
2024/02/03 16:03:24;;;;;;;31.03;5.77;;;10.60;99.90;;;;;;4940350;28;36996;-80
2024/02/03 16:05:51;;;;;;;28.13;5.90;;;10.50;99.90;;;;;;4940755;28;39007;-81
2024/02/03 16:08:21;;;;;;;45.83;7.60;;;10.50;99.90;;;;;;4940758;28;39887;-80
2024/02/03 16:10:48;;;;;;;32.17;6.47;;;10.40;99.90;;;;;;4924071;28;38484;-80
2024/02/03 16:13:45;;;;;;;37.07;6.77;;;10.40;99.90;;;;;;4931616;28;37218;-80
2024/02/03 16:18:56;;;;;;;37.83;7.30;;;10.40;99.90;;;;;;4920724;29;20052;-81
2024/02/03 16:21:31;;;;;;;42.70;7.27;;;10.40;99.90;;;;;;4910405;29;39217;-82
2024/02/03 16:24:01;;;;;;;37.47;7.27;;;10.30;99.90;;;;;;4922084;29;37519;-81
2024/02/03 16:26:28;;;;;;;39.47;8.40;;;10.30;99.90;;;;;;5461906;23;47760;-80
2024/02/03 16:28:57;;;;;;;36.70;7.77;;;10.30;99.90;;;;;;4941111;28;38915;-80
2024/02/03 16:31:30;;;;;;;32.13;7.20;;;10.30;99.90;;;;;;4934184;28;40129;-81
2024/02/03 16:34:00;;;;;;;39.23;7.43;;;10.30;99.90;;;;;;4938554;28;36223;-81
2024/02/03 16:36:27;;;;;;;41.57;7.90;;;10.30;99.90;;;;;;4931533;28;38485;-81
2024/02/03 16:39:06;;;;;;;35.10;8.30;;;10.30;99.90;;;;;;4940887;28;39188;-80
2024/02/03 16:41:33;;;;;;;44.50;9.00;;;10.30;99.90;;;;;;4929426;28;48228;-80
2024/02/03 16:44:02;;;;;;;36.83;6.80;;;10.30;99.90;;;;;;4938731;28;37318;-81
2024/02/03 16:46:29;;;;;;;38.33;7.47;;;10.30;99.90;;;;;;4937587;28;48635;-81
2024/02/03 16:49:08;;;;;;;51.13;7.63;;;10.30;99.90;;;;;;4937083;28;38847;-80
2024/02/03 16:51:35;;;;;;;49.47;8.73;;;10.20;99.90;;;;;;4939732;29;47943;-80
2024/02/03 16:54:02;;;;;;;51.07;9.50;;;10.20;99.90;;;;;;4912703;29;37512;-82
2024/02/03 16:56:31;;;;;;;39.33;8.23;;;10.20;99.90;;;;;;4931740;29;48400;-82
2024/02/03 16:59:00;;;;;;;42.30;10.23;;;10.20;99.90;;;;;;4946941;28;38324;-81
2024/02/03 17:01:27;;;;;;;37.77;8.27;;;10.20;99.90;;;;;;4923019;28;36548;-81
2024/02/03 17:03:55;;;;;;;51.53;10.00;;;10.20;99.90;;;;;;4937818;28;38082;-80
2024/02/03 17:06:34;;;;;;;53.90;9.23;;;10.20;99.90;;;;;;4935021;28;38859;-80
2024/02/03 17:09:00;;;;;;;41.47;8.73;;;10.20;99.90;;;;;;4934942;29;38497;-79
2024/02/03 17:11:33;;;;;;;40.53;9.30;;;10.20;99.90;;;;;;4950524;28;39118;-80
2024/02/03 19:52:45;;;;;;;48.63;12.18;;;9.90;99.90;;;;;;5788088;23;20048;-81
2024/02/03 19:55:46;;;;;;;56.60;11.50;;;9.80;99.90;;;;;;4935664;28;37533;-80
2024/02/03 19:58:14;;;;;;;37.93;9.70;;;9.90;99.90;;;;;;5622535;23;38991;-81
2024/02/03 20:00:52;;;;;;;47.20;12.27;;;9.90;99.90;;;;;;4938720;28;38461;-83
2024/02/03 20:03:18;;;;;;;44.47;11.57;;;9.90;99.90;;;;;;4923374;28;38590;-81
2024/02/03 20:29:19;;;;;;;46.17;11.87;;;9.80;99.90;;;;;;5221919;23;20080;-80
2024/02/03 20:32:15;;;;;;;53.73;12.13;;;9.80;99.90;;;;;;4924020;29;39561;-82
2024/02/03 20:34:54;;;;;;;48.00;10.90;;;9.80;99.90;;;;;;4932049;29;48202;-80
2024/02/03 20:38:18;;;;;;;56.50;12.03;;;9.80;99.90;;;;;;4930178;28;39013;-80
2024/02/03 20:45:57;;;;;;;52.40;11.83;;;9.80;99.90;;;;;;5231339;23;20048;-80
2024/02/03 20:48:30;;;;;;;54.80;11.47;;;9.80;99.90;;;;;;4936479;28;37182;-79
2024/02/03 20:50:57;;;;;;;51.27;12.37;;;9.80;99.90;;;;;;4924596;29;39610;-81
2024/02/03 20:53:37;;;;;;;48.90;11.33;;;9.80;99.90;;;;;;4919093;28;39018;-81
2024/02/03 20:56:18;;;;;;;52.23;12.80;;;9.80;99.90;;;;;;4911925;29;38084;-80
2024/02/03 20:58:56;;;;;;;56.77;12.73;;;9.80;99.90;;;;;;4935964;29;37346;-81
2024/02/03 21:01:45;;;;;;;55.33;11.13;;;9.80;99.90;;;;;;4924185;28;39498;-81
2024/02/03 21:04:12;;;;;;;49.90;11.80;;;9.80;99.90;;;;;;4935747;29;40077;-80
2024/02/03 21:10:18;;;;;;;56.13;11.97;;;9.90;99.90;;;;;;4939718;28;50745;-80
2024/02/03 21:12:53;;;;;;;53.57;12.30;;;9.90;99.90;;;;;;4985892;23;49095;-81
2024/02/03 21:15:19;;;;;;;53.57;11.70;;;9.80;99.90;;;;;;4936390;28;38573;-79
2024/02/03 21:18:32;;;;;;;49.33;11.83;;;9.90;99.90;;;;;;4940067;29;38581;-81
2024/02/03 21:20:59;;;;;;;58.67;11.80;;;9.90;99.90;;;;;;4936073;29;47298;-80
2024/02/03 21:23:31;;;;;;;58.83;12.93;;;9.90;99.90;;;;;;4934693;28;39027;-80
2024/02/03 21:26:22;;;;;;;50.95;12.45;;;9.90;99.90;;;;;;4939110;29;38088;-80
2024/02/03 21:28:59;;;;;;;54.37;12.63;;;9.90;99.90;;;;;;4938170;29;48579;-80
2024/02/03 21:31:56;;;;;;;61.67;14.00;;;9.90;99.90;;;;;;4922556;29;36449;-82
2024/02/03 21:34:23;;;;;;;49.97;11.93;;;9.90;99.90;;;;;;4934570;28;38624;-81
2024/02/03 21:36:49;;;;;;;48.83;12.33;;;9.90;99.90;;;;;;4949991;28;38894;-79
2024/02/03 21:39:20;;;;;;;40.97;11.27;;;9.90;99.90;;;;;;4935750;28;39488;-80
2024/02/03 21:44:26;;;;;;;45.10;10.80;;;9.90;99.90;;;;;;5363023;23;20032;-79
2024/02/03 21:47:16;;;;;;;49.37;11.23;;;9.90;99.90;;;;;;4940562;29;37546;-80
2024/02/03 21:49:42;;;;;;;60.30;11.90;;;9.90;99.90;;;;;;4930270;29;48519;-81
2024/02/03 21:52:30;;;;;;;43.70;10.83;;;9.90;99.90;;;;;;4921077;28;37821;-80
2024/02/03 22:00:12;;;;;;;45.90;10.83;;;9.90;99.90;;;;;;5930877;23;20033;-81
2024/02/03 22:02:38;;;;;;;53.37;11.60;;;9.90;99.90;;;;;;4930998;28;36563;-81
2024/02/03 22:05:07;;;;;;;40.07;10.20;;;9.90;99.90;;;;;;4916972;29;39555;-80
2024/02/03 22:07:45;;;;;;;39.60;10.57;;;9.90;99.90;;;;;;4938111;29;48412;-80
2024/02/03 22:10:28;;;;;;;42.83;10.00;;;9.90;99.90;;;;;;4940299;28;39165;-81
2024/02/03 22:15:31;;;;;;;47.30;10.60;;;9.90;99.90;;;;;;5993800;23;20088;-79
2024/02/03 22:25:45;;;;;;;52.77;10.93;;;9.90;99.90;;;;;;5510758;23;20029;-81
2024/02/03 22:28:36;;;;;;;57.77;11.13;;;9.90;99.90;;;;;;4934587;29;38318;-81
2024/02/03 22:31:08;;;;;;;45.70;10.30;;;9.90;99.90;;;;;;4916318;29;39445;-80
2024/02/03 22:33:37;;;;;;;52.72;11.57;;;10.00;99.90;;;;;;4920329;29;36688;-80
2024/02/03 22:41:18;;;;;;;63.63;13.00;;;10.00;99.90;;;;;;4935556;28;20062;-80
2024/02/03 22:43:50;;;;;;;48.07;11.00;;;9.90;99.90;;;;;;4931653;29;38074;-80
2024/02/03 22:49:42;;;;;;;45.08;10.43;;;10.00;99.90;;;;;;4929207;28;50533;-81
2024/02/03 22:52:09;;;;;;;49.23;11.77;;;10.00;99.90;;;;;;4920672;28;39492;-80
2024/02/03 22:55:11;;;;;;;48.63;10.47;;;10.00;99.90;;;;;;4940504;28;38789;-81
2024/02/03 22:57:57;;;;;;;52.20;12.03;;;10.10;99.90;;;;;;4938282;28;48351;-80
2024/02/03 23:00:28;;;;;;;61.17;12.50;;;10.10;99.90;;;;;;4940359;28;39979;-81
2024/02/03 23:02:57;;;;;;;48.83;11.77;;;10.10;99.90;;;;;;4943086;28;38902;-81
2024/02/03 23:15:51;;;;;;;51.50;11.53;;;10.20;99.90;;;;;;5896182;23;19999;-80
2024/02/03 23:18:47;;;;;;;59.30;12.50;;;10.20;99.90;;;;;;4929194;29;38477;-80
2024/02/03 23:21:43;;;;;;;46.00;11.57;;;10.30;99.90;;;;;;4938111;28;39886;-82
2024/02/03 23:24:13;;;;;;;53.43;12.90;;;10.30;99.90;;;;;;4942106;28;38034;-80
2024/02/03 23:27:04;;;;;;;54.17;12.47;;;10.30;99.90;;;;;;4942568;29;37936;-81
2024/02/03 23:29:35;;;;;;;58.13;14.60;;;10.30;99.90;;;;;;4909921;28;47962;-81
2024/02/03 23:32:26;;;;;;;48.27;13.33;;;10.30;99.90;;;;;;4929880;29;38733;-80
2024/02/03 23:35:00;;;;;;;58.27;13.50;;;10.30;99.90;;;;;;4940032;29;48276;-81
2024/02/03 23:40:59;;;;;;;56.10;15.85;;;10.40;99.90;;;;;;4941807;28;50595;-80
2024/02/03 23:44:04;;;;;;;53.40;15.30;;;10.40;99.90;;;;;;4941003;28;38685;-84
2024/02/03 23:46:53;;;;;;;63.87;15.47;;;10.40;99.90;;;;;;4941299;28;48850;-81
2024/02/03 23:49:24;;;;;;;59.10;15.70;;;10.40;99.90;;;;;;4930939;28;37796;-81
2024/02/03 23:51:51;;;;;;;56.28;15.65;;;10.40;99.90;;;;;;4942331;29;39941;-81
2024/02/03 23:54:18;;;;;;;65.53;16.70;;;10.50;99.90;;;;;;4941481;28;39660;-81
2024/02/03 23:56:53;;;;;;;43.27;13.37;;;10.50;99.90;;;;;;5065460;23;38248;-81
